createdAt,value
2018-06-16T00:00:19.791Z,93.30
2018-06-16T00:02:53.048Z,93.60
2018-06-16T00:05:24.442Z,93.40
2018-06-16T00:07:55.845Z,92.90
2018-06-16T00:10:27.647Z,93.10
2018-06-16T00:13:11.885Z,93.50
2018-06-16T00:15:43.094Z,93.20
2018-06-16T00:18:14.747Z,93.10
2018-06-16T00:20:47.754Z,93.20
2018-06-16T00:23:18.909Z,93.30
2018-06-16T00:25:50.680Z,93.50
2018-06-16T00:28:22.093Z,93.10
2018-06-16T00:30:53.245Z,93.80
2018-06-16T00:33:28.445Z,93.70
2018-06-16T00:36:00.000Z,93.30
2018-06-16T00:38:31.702Z,93.40
2018-06-16T00:41:04.452Z,93.90
2018-06-16T00:43:35.383Z,93.60
2018-06-16T00:46:06.557Z,94.20
2018-06-16T00:48:38.173Z,94.10
2018-06-16T00:51:11.362Z,93.70
2018-06-16T00:53:42.716Z,94.00
2018-06-16T00:56:13.757Z,93.90
2018-06-16T00:58:44.919Z,94.60
2018-06-16T01:01:15.747Z,94.60
2018-06-16T01:03:47.138Z,94.60
2018-06-16T01:06:18.798Z,95.20
2018-06-16T01:08:49.516Z,94.90
2018-06-16T01:11:20.448Z,94.60
2018-06-16T01:16:23.739Z,94.90
2018-06-16T01:18:54.683Z,94.80
2018-06-16T01:21:26.174Z,94.50
2018-06-16T01:23:57.431Z,93.70
2018-06-16T01:26:29.251Z,94.30
2018-06-16T01:29:00.587Z,94.10
2018-06-16T01:31:33.507Z,93.60
2018-06-16T01:34:04.938Z,94.50
2018-06-16T01:36:49.692Z,93.40
2018-06-16T01:39:21.057Z,94.00
2018-06-16T01:42:02.908Z,93.60
2018-06-16T01:44:34.257Z,93.70
2018-06-16T01:47:12.208Z,94.70
2018-06-16T01:49:44.254Z,94.60
2018-06-16T01:52:16.609Z,94.70
2018-06-16T01:54:47.925Z,94.40
2018-06-16T01:57:19.251Z,93.40
2018-06-16T01:59:55.468Z,93.70
2018-06-16T02:02:26.761Z,93.60
2018-06-16T02:05:07.470Z,94.50
2018-06-16T02:07:38.645Z,94.30
2018-06-16T02:10:09.915Z,94.70
2018-06-16T02:12:41.398Z,94.40
2018-06-16T02:15:13.306Z,94.30
2018-06-16T02:17:45.136Z,93.90
2018-06-16T02:20:16.271Z,93.10
2018-06-16T02:22:56.978Z,93.90
2018-06-16T02:25:28.058Z,94.30
2018-06-16T02:27:59.687Z,94.70
2018-06-16T02:30:30.935Z,95.00
2018-06-16T02:33:02.750Z,95.20
2018-06-16T02:35:34.491Z,94.80
2018-06-16T02:38:06.400Z,95.00
2018-06-16T02:40:37.609Z,95.00
2018-06-16T02:43:09.145Z,95.10
2018-06-16T02:45:41.002Z,94.90
2018-06-16T02:48:12.541Z,95.20
2018-06-16T02:50:44.312Z,94.90
2018-06-16T02:53:16.190Z,95.00
2018-06-16T02:55:48.015Z,94.50
2018-06-16T02:58:20.829Z,94.30
2018-06-16T03:00:52.373Z,94.10
2018-06-16T03:03:23.696Z,94.70
2018-06-16T03:05:55.140Z,94.30
2018-06-16T03:08:28.167Z,93.80
2018-06-16T03:10:59.555Z,93.60
2018-06-16T03:13:37.899Z,93.30
2018-06-16T03:16:08.846Z,94.20
2018-06-16T03:18:39.989Z,94.40
2018-06-16T03:21:10.735Z,95.10
2018-06-16T03:23:41.479Z,95.10
2018-06-16T03:26:13.626Z,95.30
2018-06-16T03:28:45.388Z,95.60
2018-06-16T03:31:16.114Z,95.80
2018-06-16T03:33:46.956Z,95.40
2018-06-16T03:36:17.541Z,95.30
2018-06-16T03:38:48.623Z,95.70
2018-06-16T03:41:19.537Z,94.90
2018-06-16T03:43:51.009Z,95.10
2018-06-16T03:46:23.006Z,95.20
2018-06-16T03:48:52.853Z,94.90
2018-06-16T03:51:24.926Z,94.10
2018-06-16T03:53:55.515Z,93.90
2018-06-16T03:56:28.682Z,94.30
2018-06-16T03:58:58.883Z,94.20
2018-06-16T04:01:34.290Z,93.60
2018-06-16T04:04:04.782Z,93.50
2018-06-16T04:06:35.177Z,93.30
2018-06-16T04:09:09.443Z,93.20
2018-06-16T04:11:39.609Z,93.00
2018-06-16T04:14:10.052Z,92.50
2018-06-16T04:16:40.072Z,92.10
2018-06-16T04:19:10.548Z,91.90
2018-06-16T04:21:40.881Z,92.30
2018-06-16T04:24:11.179Z,92.50
2018-06-16T04:26:41.105Z,92.40
2018-06-16T04:29:10.972Z,91.90
2018-06-16T04:31:40.620Z,91.70
2018-06-16T04:34:10.485Z,91.50
2018-06-16T04:36:40.515Z,91.00
2018-06-16T04:39:11.067Z,91.00
2018-06-16T04:41:40.868Z,91.10
2018-06-16T04:44:15.330Z,90.90
2018-06-16T04:46:45.718Z,90.40
2018-06-16T04:49:21.945Z,90.10
2018-06-16T04:51:52.765Z,90.00
2018-06-16T04:54:23.725Z,89.80
2018-06-16T04:56:53.973Z,89.70
2018-06-16T04:59:24.855Z,89.60
2018-06-16T05:01:54.962Z,89.10
2018-06-16T05:04:25.033Z,88.60
2018-06-16T05:07:00.429Z,88.30
2018-06-16T05:09:30.809Z,88.10
2018-06-16T05:12:00.783Z,88.00
2018-06-16T05:14:31.325Z,87.50
2018-06-16T05:17:01.265Z,87.40
2018-06-16T05:19:32.328Z,87.30
2018-06-16T05:22:02.354Z,87.30
2018-06-16T05:24:32.171Z,86.60
2018-06-16T05:27:04.418Z,87.00
2018-06-16T05:29:34.536Z,86.60
2018-06-16T05:32:04.526Z,86.50
2018-06-16T05:34:35.624Z,86.40
2018-06-16T05:37:13.339Z,86.20
2018-06-16T05:39:43.883Z,85.70
2018-06-16T05:42:14.198Z,85.60
2018-06-16T05:44:44.384Z,85.90
2018-06-16T05:47:14.780Z,85.70
2018-06-16T05:49:44.900Z,85.70
2018-06-16T05:52:15.437Z,85.60
2018-06-16T05:54:46.304Z,85.50
2018-06-16T05:57:17.703Z,85.20
2018-06-16T06:00:16.599Z,85.30
2018-06-16T06:02:47.324Z,84.90
2018-06-16T06:05:19.468Z,84.50
2018-06-16T06:07:50.820Z,83.90
2018-06-16T06:10:21.369Z,83.40
2018-06-16T06:12:52.462Z,83.50
2018-06-16T06:15:26.174Z,83.90
2018-06-16T06:17:57.241Z,83.70
2018-06-16T06:20:28.261Z,83.40
2018-06-16T06:22:59.281Z,83.80
2018-06-16T06:25:31.069Z,83.80
2018-06-16T06:28:02.559Z,83.10
2018-06-16T06:30:33.725Z,83.00
2018-06-16T06:33:04.682Z,82.90
2018-06-16T06:35:36.516Z,82.70
2018-06-16T06:38:15.371Z,82.00
2018-06-16T06:40:47.616Z,82.00
2018-06-16T06:43:18.280Z,82.00
2018-06-16T06:45:50.306Z,81.10
2018-06-16T06:48:22.124Z,81.00
2018-06-16T06:50:53.868Z,80.40
2018-06-16T06:53:26.672Z,80.40
2018-06-16T06:55:58.899Z,80.40
2018-06-16T06:58:30.595Z,80.00
2018-06-16T07:01:02.901Z,80.40
2018-06-16T07:03:34.678Z,79.60
2018-06-16T07:06:06.533Z,79.70
2018-06-16T07:08:38.666Z,79.80
2018-06-16T07:11:10.653Z,79.50
2018-06-16T07:13:42.559Z,79.60
2018-06-16T07:16:15.688Z,79.00
2018-06-16T07:18:47.270Z,78.80
2018-06-16T07:21:19.463Z,78.40
2018-06-16T07:23:51.391Z,78.60
2018-06-16T07:26:23.377Z,77.20
2018-06-16T07:28:56.073Z,77.30
2018-06-16T07:31:29.160Z,77.40
2018-06-16T07:34:00.657Z,77.20
2018-06-16T07:36:32.555Z,76.80
2018-06-16T07:39:04.707Z,76.50
2018-06-16T07:41:36.780Z,76.60
2018-06-16T07:44:09.387Z,76.50
2018-06-16T07:46:42.660Z,76.40
2018-06-16T07:49:14.865Z,77.00
2018-06-16T07:51:46.382Z,77.20
2018-06-16T07:54:18.065Z,76.80
2018-06-16T07:56:49.895Z,77.10
2018-06-16T07:59:21.785Z,76.70
2018-06-16T08:01:53.659Z,76.70
2018-06-16T08:04:26.089Z,76.20
2018-06-16T08:06:59.160Z,75.90
2018-06-16T08:09:30.271Z,75.60
2018-06-16T08:14:37.826Z,76.00
2018-06-16T08:17:09.412Z,76.00
2018-06-16T08:19:44.838Z,75.90
2018-06-16T08:22:22.282Z,76.10
2018-06-16T08:24:53.596Z,75.90
2018-06-16T08:27:25.169Z,76.10
2018-06-16T08:29:56.372Z,76.20
2018-06-16T08:32:28.380Z,75.90
2018-06-16T08:35:00.234Z,76.00
2018-06-16T08:37:31.975Z,76.00
2018-06-16T08:40:03.751Z,75.90
2018-06-16T08:42:35.533Z,76.00
2018-06-16T08:45:07.062Z,75.50
2018-06-16T08:47:40.576Z,75.30
2018-06-16T08:50:12.341Z,75.00
2018-06-16T08:52:44.611Z,74.80
2018-06-16T08:55:17.073Z,74.60
2018-06-16T08:57:49.676Z,74.10
2018-06-16T09:00:21.784Z,74.10
2018-06-16T09:02:53.576Z,72.70
2018-06-16T09:05:25.006Z,72.00
2018-06-16T09:07:56.243Z,70.90
2018-06-16T09:10:27.951Z,70.50
2018-06-16T09:13:04.541Z,70.80
2018-06-16T09:15:43.280Z,71.00
2018-06-16T09:18:15.074Z,70.70
2018-06-16T09:20:48.275Z,70.30
2018-06-16T09:23:21.092Z,70.00
2018-06-16T09:25:55.311Z,69.90
2018-06-16T09:28:31.344Z,69.50
2018-06-16T09:31:01.111Z,69.30
2018-06-16T09:33:32.595Z,68.90
2018-06-16T09:36:05.460Z,69.00
2018-06-16T09:38:37.767Z,67.80
2018-06-16T09:41:09.348Z,67.80
2018-06-16T09:43:47.515Z,66.80
2018-06-16T09:46:19.703Z,66.10
2018-06-16T09:48:52.577Z,65.10
2018-06-16T09:51:25.045Z,65.00
2018-06-16T09:53:56.171Z,64.90
2018-06-16T09:56:27.476Z,64.60
2018-06-16T09:58:59.496Z,64.90
2018-06-16T10:04:01.729Z,64.20
2018-06-16T10:06:33.513Z,64.50
2018-06-16T10:09:06.904Z,64.20
2018-06-16T10:11:37.262Z,62.70
2018-06-16T10:14:10.289Z,61.30
2018-06-16T10:16:42.071Z,60.90
2018-06-16T10:19:13.595Z,61.20
2018-06-16T10:21:46.521Z,61.50
2018-06-16T10:26:56.743Z,61.90
2018-06-16T10:29:32.982Z,63.00
2018-06-16T10:32:03.963Z,61.50
2018-06-16T10:34:37.005Z,61.90
2018-06-16T10:37:08.709Z,60.10
2018-06-16T10:39:38.496Z,58.90
2018-06-16T10:42:13.672Z,58.70
2018-06-16T10:44:45.270Z,57.00
2018-06-16T10:47:19.091Z,57.00
2018-06-16T10:49:52.378Z,57.00
2018-06-16T10:52:26.227Z,57.90
2018-06-16T10:55:30.646Z,58.70
2018-06-16T10:58:02.724Z,59.10
2018-06-16T11:00:35.542Z,58.20
2018-06-16T11:03:07.127Z,58.50
2018-06-16T11:05:41.050Z,59.30
2018-06-16T11:08:12.578Z,60.00
2018-06-16T11:10:43.577Z,60.80
2018-06-16T11:13:15.419Z,61.80
2018-06-16T11:15:47.384Z,62.00
2018-06-16T11:18:18.405Z,62.40
2018-06-16T11:20:49.787Z,62.40
2018-06-16T11:23:19.398Z,62.90
2018-06-16T11:25:52.582Z,63.00
2018-06-16T11:28:22.142Z,62.70
2018-06-16T11:30:52.147Z,61.10
2018-06-16T11:33:23.454Z,60.60
2018-06-16T11:35:58.619Z,61.10
2018-06-16T11:38:28.962Z,61.90
2018-06-16T11:40:59.853Z,62.90
2018-06-16T11:43:33.387Z,63.50
2018-06-16T11:46:05.087Z,64.10
2018-06-16T11:48:34.745Z,64.10
2018-06-16T11:51:05.029Z,64.80
2018-06-16T11:53:43.772Z,65.10
2018-06-16T11:56:15.641Z,63.40
2018-06-16T11:58:45.277Z,62.00
2018-06-16T12:01:15.469Z,62.60
2018-06-16T12:03:45.126Z,64.00
2018-06-16T12:06:16.205Z,65.10
2018-06-16T12:08:47.555Z,66.30
2018-06-16T12:11:18.837Z,67.00
2018-06-16T12:13:48.448Z,67.50
2018-06-16T12:16:18.114Z,67.50
2018-06-16T12:18:47.654Z,66.80
2018-06-16T12:21:17.510Z,67.00
2018-06-16T12:23:48.730Z,66.50
2018-06-16T12:26:19.120Z,66.60
2018-06-16T12:28:48.762Z,66.30
2018-06-16T12:31:25.344Z,66.00
2018-06-16T12:33:55.804Z,65.50
2018-06-16T12:36:25.514Z,65.60
2018-06-16T12:38:56.703Z,64.80
2018-06-16T12:41:26.275Z,63.80
2018-06-16T12:43:59.985Z,61.30
2018-06-16T12:46:29.561Z,58.50
2018-06-16T12:49:01.525Z,57.20
2018-06-16T12:51:31.486Z,55.50
2018-06-16T12:54:01.371Z,53.90
2018-06-16T12:56:33.700Z,55.10
2018-06-16T12:59:03.517Z,56.20
2018-06-16T13:01:33.272Z,56.60
2018-06-16T13:04:02.746Z,57.20
2018-06-16T13:09:02.180Z,57.60
2018-06-16T13:11:31.446Z,56.80
2018-06-16T13:14:01.190Z,56.00
2018-06-16T13:16:30.668Z,55.70
2018-06-16T13:19:01.526Z,54.30
2018-06-16T13:21:33.189Z,52.00
2018-06-16T13:24:03.276Z,51.30
2018-06-16T13:26:32.833Z,51.60
2018-06-16T13:29:03.315Z,51.90
2018-06-16T13:31:33.087Z,52.70
2018-06-16T13:34:02.510Z,53.60
2018-06-16T13:36:32.997Z,53.00
2018-06-16T13:39:09.942Z,53.00
2018-06-16T13:41:40.362Z,52.50
2018-06-16T13:44:09.991Z,51.60
2018-06-16T13:49:13.830Z,51.60
2018-06-16T13:51:43.372Z,53.20
2018-06-16T13:54:12.958Z,52.40
2018-06-16T13:56:42.308Z,52.50
2018-06-16T13:59:21.611Z,53.50
2018-06-16T14:01:51.383Z,54.40
2018-06-16T14:04:21.432Z,55.10
2018-06-16T14:06:50.994Z,55.20
2018-06-16T14:09:21.766Z,53.60
2018-06-16T14:11:51.342Z,52.60
2018-06-16T14:14:21.123Z,52.10
2018-06-16T14:16:54.340Z,51.60
2018-06-16T14:19:26.009Z,49.70
2018-06-16T14:21:57.924Z,49.40
2018-06-16T14:24:29.884Z,49.60
2018-06-16T14:27:02.889Z,50.00
2018-06-16T14:29:35.076Z,50.90
2018-06-16T14:32:07.358Z,50.40
2018-06-16T14:34:37.365Z,50.50
2018-06-16T14:39:39.612Z,50.70
2018-06-16T14:42:11.279Z,51.60
2018-06-16T14:44:43.298Z,52.50
2018-06-16T14:47:15.234Z,53.20
2018-06-16T14:49:46.728Z,52.90
2018-06-16T14:52:18.323Z,53.40
2018-06-16T14:54:49.917Z,54.50
2018-06-16T14:57:21.988Z,55.50
2018-06-16T14:59:54.641Z,55.90
2018-06-16T15:02:26.543Z,56.20
2018-06-16T15:04:58.215Z,56.80
2018-06-16T15:07:30.657Z,57.10
2018-06-16T15:10:01.993Z,57.20
2018-06-16T15:12:53.504Z,57.80
2018-06-16T15:15:25.377Z,57.90
2018-06-16T15:17:59.266Z,58.40
2018-06-16T15:20:29.911Z,58.70
2018-06-16T15:23:04.158Z,58.80
2018-06-16T15:25:37.068Z,58.70
2018-06-16T15:28:07.961Z,59.50
2018-06-16T15:30:40.099Z,59.90
2018-06-16T15:33:10.572Z,60.30
2018-06-16T15:35:42.629Z,60.60
2018-06-16T15:38:13.627Z,61.00
2018-06-16T15:40:47.312Z,60.90
2018-06-16T15:43:18.281Z,60.10
2018-06-16T15:45:49.837Z,60.60
2018-06-16T15:48:34.565Z,60.90
2018-06-16T15:51:06.986Z,60.60
2018-06-16T15:53:36.650Z,61.60
2018-06-16T15:56:12.524Z,62.20
2018-06-16T15:58:43.382Z,62.70
2018-06-16T16:01:17.525Z,63.20
2018-06-16T16:23:40.445Z,78.60
2018-06-16T16:26:13.238Z,83.90
2018-06-16T16:33:37.347Z,90.60
2018-06-16T16:36:08.718Z,91.30
2018-06-16T16:38:40.357Z,91.30
2018-06-16T16:41:11.584Z,92.60
2018-06-16T16:43:42.036Z,92.80
2018-06-16T16:46:19.941Z,93.70
2018-06-16T16:48:51.038Z,92.70
2018-06-16T16:51:22.367Z,94.10
2018-06-16T16:56:23.409Z,95.60
2018-06-16T16:58:55.053Z,95.50
2018-06-16T17:01:26.094Z,95.30
2018-06-16T17:03:57.405Z,95.50
2018-06-16T17:06:29.460Z,95.80
2018-06-16T17:09:00.682Z,95.80
2018-06-16T17:11:32.945Z,96.30
2018-06-16T17:14:04.483Z,95.60
2018-06-16T17:16:44.965Z,95.80
2018-06-16T17:19:21.546Z,95.00
2018-06-16T17:21:56.825Z,95.40
2018-06-16T17:24:49.929Z,94.50
2018-06-16T17:27:26.817Z,95.30
2018-06-16T17:29:57.907Z,95.30
2018-06-16T17:32:29.095Z,94.70
2018-06-16T17:35:06.339Z,93.30
2018-06-16T17:37:46.700Z,93.50
2018-06-16T17:40:22.579Z,93.80
2018-06-16T17:42:56.028Z,93.70
2018-06-16T17:45:29.747Z,91.90
2018-06-16T17:48:01.780Z,92.10
2018-06-16T17:50:33.867Z,93.00
2018-06-16T17:53:06.090Z,93.40
2018-06-16T17:55:47.768Z,93.10
2018-06-16T17:58:24.297Z,94.00
2018-06-16T18:01:00.282Z,95.10
2018-06-16T18:03:35.726Z,95.40
2018-06-16T18:06:11.482Z,94.80
2018-06-16T18:08:42.968Z,94.60
2018-06-16T18:11:20.929Z,94.30
2018-06-16T18:13:57.552Z,94.70
2018-06-16T18:16:28.585Z,94.90
2018-06-16T18:19:01.670Z,94.70
2018-06-16T18:21:31.913Z,94.30
2018-06-16T18:24:06.428Z,94.40
2018-06-16T18:26:37.629Z,95.10
2018-06-16T18:29:13.253Z,94.90
2018-06-16T18:31:53.783Z,95.40
2018-06-16T18:34:28.033Z,95.50
2018-06-16T18:36:59.408Z,95.50
2018-06-16T18:39:29.840Z,95.30
2018-06-16T18:42:04.823Z,94.90
2018-06-16T18:44:41.022Z,94.50
2018-06-16T18:47:16.837Z,93.50
2018-06-16T18:49:48.504Z,94.00
2018-06-16T18:52:26.906Z,93.30
2018-06-16T18:55:05.499Z,90.70
2018-06-16T18:57:48.448Z,91.30
2018-06-16T19:00:23.031Z,91.40
2018-06-16T19:02:57.125Z,89.80
2018-06-16T19:05:39.629Z,89.30
2018-06-16T19:11:04.994Z,87.90
2018-06-16T19:13:38.881Z,87.80
2018-06-16T19:16:12.506Z,87.90
2018-06-16T19:18:52.794Z,87.70
2018-06-16T19:21:25.691Z,87.80
2018-06-16T19:23:59.633Z,89.90
2018-06-16T19:26:35.728Z,89.40
2018-06-16T19:29:09.870Z,89.60
2018-06-16T19:31:44.668Z,90.20
2018-06-16T19:34:17.754Z,90.20
2018-06-16T19:36:50.796Z,90.40
2018-06-16T19:39:23.490Z,89.70
2018-06-16T19:41:56.792Z,90.30
2018-06-16T19:44:33.595Z,91.30
2018-06-16T19:49:39.313Z,92.60
2018-06-16T19:52:12.023Z,93.00
2018-06-16T19:54:44.687Z,92.10
2018-06-16T19:57:17.406Z,91.80
2018-06-16T19:59:50.165Z,92.10
2018-06-16T20:02:24.969Z,91.00
2018-06-16T20:04:57.822Z,92.00
2018-06-16T20:07:37.527Z,92.30
2018-06-16T20:10:51.220Z,93.70
2018-06-16T20:13:24.118Z,93.50
2018-06-16T20:15:56.489Z,92.80
2018-06-16T20:18:28.481Z,92.90
2018-06-16T20:21:01.784Z,93.10
2018-06-16T20:23:34.676Z,91.50
2018-06-16T20:26:07.223Z,91.50
2018-06-16T20:28:40.581Z,91.60
2018-06-16T20:31:12.563Z,91.90
2018-06-16T20:33:46.122Z,91.20
2018-06-16T20:36:20.766Z,91.10
2018-06-16T20:38:54.518Z,91.30
2018-06-16T20:41:27.278Z,90.50
2018-06-16T20:45:07.665Z,90.20
2018-06-16T20:47:40.705Z,90.50
2018-06-16T20:50:20.666Z,90.20
2018-06-16T20:52:56.186Z,89.30
2018-06-16T20:55:39.188Z,89.70
2018-06-16T20:58:12.358Z,89.80
2018-06-16T21:00:45.477Z,89.20
2018-06-16T21:03:24.366Z,88.90
2018-06-16T21:05:56.378Z,87.40
2018-06-16T21:08:29.664Z,87.60
2018-06-16T21:11:02.549Z,87.10
2018-06-16T21:13:41.084Z,87.10
2018-06-16T21:16:13.708Z,86.60
2018-06-16T21:18:47.523Z,86.60
2018-06-16T21:21:20.298Z,86.30
2018-06-16T21:23:55.512Z,86.40
2018-06-16T21:26:27.770Z,86.60
2018-06-16T21:28:59.722Z,86.10
2018-06-16T21:31:31.962Z,86.30
2018-06-16T21:34:06.016Z,86.40
2018-06-16T21:36:39.097Z,86.70
2018-06-16T21:39:12.223Z,87.10
2018-06-16T21:41:45.059Z,87.60
2018-06-16T21:44:17.947Z,89.50
2018-06-16T21:46:50.523Z,89.60
2018-06-16T21:49:23.087Z,90.10
2018-06-16T21:51:57.802Z,90.40
2018-06-16T21:54:33.531Z,90.90
2018-06-16T21:57:05.739Z,91.50
2018-06-16T21:59:38.199Z,91.10
2018-06-16T22:02:10.374Z,91.60
2018-06-16T22:04:47.711Z,91.80
2018-06-16T22:07:18.708Z,91.30
2018-06-16T22:09:55.412Z,91.50
2018-06-16T22:12:33.106Z,91.90
2018-06-16T22:15:13.735Z,92.50
2018-06-16T22:17:47.336Z,92.20
2018-06-16T22:20:19.023Z,93.40
2018-06-16T22:22:50.336Z,92.90
2018-06-16T22:25:28.172Z,92.60
2018-06-16T22:28:01.018Z,92.50
2018-06-16T22:30:33.540Z,93.40
2018-06-16T22:35:52.108Z,93.10
2018-06-16T22:38:27.503Z,93.10
2018-06-16T22:41:06.260Z,93.00
2018-06-16T22:43:37.786Z,92.70
2018-06-16T22:46:09.933Z,93.30
2018-06-16T22:48:42.501Z,94.40
2018-06-16T22:51:15.632Z,92.60
2018-06-16T22:53:49.542Z,91.90
2018-06-16T22:56:24.225Z,92.00
2018-06-16T22:59:01.301Z,92.10
2018-06-16T23:01:33.271Z,92.80
2018-06-16T23:04:13.030Z,93.40
2018-06-16T23:06:50.797Z,94.50
2018-06-16T23:09:28.206Z,94.50
2018-06-16T23:11:59.981Z,94.70
2018-06-16T23:14:31.386Z,95.20
2018-06-16T23:17:04.956Z,95.70
2018-06-16T23:19:37.384Z,95.70
2018-06-16T23:22:09.399Z,95.70
2018-06-16T23:24:40.769Z,95.60
2018-06-16T23:27:12.512Z,92.80
2018-06-16T23:29:44.384Z,92.50
2018-06-16T23:32:15.820Z,90.50
2018-06-16T23:34:47.289Z,90.20
2018-06-16T23:37:19.833Z,90.10
2018-06-16T23:39:51.333Z,88.80
2018-06-16T23:42:21.733Z,88.80
2018-06-16T23:44:52.205Z,87.70
2018-06-16T23:47:22.922Z,87.40
2018-06-16T23:49:54.934Z,86.60
2018-06-16T23:52:26.949Z,86.20
2018-06-16T23:54:59.047Z,85.40
2018-06-16T23:57:29.619Z,84.60
